sensor_id;sensor_type;location;lat;lon;timestamp;P1;durP1;ratioP1;P2;durP2;ratioP2
18162;SDS011;9206;50.994;4.538;2023-05-16T00:01:37;13.80;;;3.00;;
18162;SDS011;9206;50.994;4.538;2023-05-16T00:04:30;12.67;;;2.80;;
18162;SDS011;9206;50.994;4.538;2023-05-16T00:07:18;14.47;;;2.80;;
18162;SDS011;9206;50.994;4.538;2023-05-16T00:10:09;9.23;;;3.27;;
18162;SDS011;9206;50.994;4.538;2023-05-16T00:13:01;16.63;;;3.30;;
18162;SDS011;9206;50.994;4.538;2023-05-16T00:15:58;11.80;;;2.83;;
18162;SDS011;9206;50.994;4.538;2023-05-16T00:18:48;12.47;;;3.00;;
18162;SDS011;9206;50.994;4.538;2023-05-16T00:21:44;14.13;;;3.10;;
18162;SDS011;9206;50.994;4.538;2023-05-16T00:24:33;15.93;;;3.57;;
18162;SDS011;9206;50.994;4.538;2023-05-16T00:27:23;13.67;;;2.90;;
18162;SDS011;9206;50.994;4.538;2023-05-16T00:30:18;14.07;;;3.63;;
18162;SDS011;9206;50.994;4.538;2023-05-16T00:33:18;13.67;;;2.90;;
18162;SDS011;9206;50.994;4.538;2023-05-16T00:36:22;12.23;;;3.23;;
18162;SDS011;9206;50.994;4.538;2023-05-16T00:39:11;10.83;;;2.80;;
18162;SDS011;9206;50.994;4.538;2023-05-16T00:42:08;10.83;;;2.67;;
18162;SDS011;9206;50.994;4.538;2023-05-16T00:48:08;16.90;;;3.00;;
18162;SDS011;9206;50.994;4.538;2023-05-16T00:51:01;9.13;;;2.63;;
18162;SDS011;9206;50.994;4.538;2023-05-16T00:53:54;14.47;;;2.93;;
18162;SDS011;9206;50.994;4.538;2023-05-16T00:56:43;16.07;;;2.93;;
18162;SDS011;9206;50.994;4.538;2023-05-16T00:59:30;6.20;;;2.80;;
18162;SDS011;9206;50.994;4.538;2023-05-16T01:02:25;8.70;;;2.80;;
18162;SDS011;9206;50.994;4.538;2023-05-16T01:05:22;7.80;;;2.67;;
18162;SDS011;9206;50.994;4.538;2023-05-16T01:08:09;10.93;;;3.30;;
18162;SDS011;9206;50.994;4.538;2023-05-16T01:10:59;18.03;;;3.30;;
18162;SDS011;9206;50.994;4.538;2023-05-16T01:13:54;14.43;;;3.87;;
18162;SDS011;9206;50.994;4.538;2023-05-16T01:16:49;18.40;;;3.30;;
18162;SDS011;9206;50.994;4.538;2023-05-16T01:23:14;8.40;;;3.10;;
18162;SDS011;9206;50.994;4.538;2023-05-16T01:26:15;13.10;;;3.23;;
18162;SDS011;9206;50.994;4.538;2023-05-16T01:29:06;8.43;;;2.30;;
18162;SDS011;9206;50.994;4.538;2023-05-16T01:31:55;11.13;;;2.80;;
18162;SDS011;9206;50.994;4.538;2023-05-16T01:34:43;10.30;;;2.93;;
18162;SDS011;9206;50.994;4.538;2023-05-16T01:40:41;16.63;;;3.10;;
18162;SDS011;9206;50.994;4.538;2023-05-16T01:43:41;9.73;;;2.50;;
18162;SDS011;9206;50.994;4.538;2023-05-16T01:46:30;10.53;;;2.93;;
18162;SDS011;9206;50.994;4.538;2023-05-16T01:52:21;14.13;;;2.90;;
18162;SDS011;9206;50.994;4.538;2023-05-16T01:55:14;14.10;;;3.03;;
18162;SDS011;9206;50.994;4.538;2023-05-16T01:58:06;12.57;;;3.10;;
18162;SDS011;9206;50.994;4.538;2023-05-16T02:01:08;8.27;;;2.80;;
18162;SDS011;9206;50.994;4.538;2023-05-16T02:04:02;12.20;;;3.13;;
18162;SDS011;9206;50.994;4.538;2023-05-16T02:06:50;14.73;;;3.43;;
18162;SDS011;9206;50.994;4.538;2023-05-16T02:09:40;11.27;;;3.23;;
18162;SDS011;9206;50.994;4.538;2023-05-16T02:12:33;10.00;;;2.80;;
18162;SDS011;9206;50.994;4.538;2023-05-16T02:15:22;8.77;;;3.67;;
18162;SDS011;9206;50.994;4.538;2023-05-16T02:18:11;13.93;;;3.30;;
18162;SDS011;9206;50.994;4.538;2023-05-16T02:20:59;21.27;;;3.43;;
18162;SDS011;9206;50.994;4.538;2023-05-16T02:23:53;9.57;;;3.00;;
18162;SDS011;9206;50.994;4.538;2023-05-16T02:29:37;7.10;;;3.00;;
18162;SDS011;9206;50.994;4.538;2023-05-16T02:32:30;20.10;;;2.97;;
18162;SDS011;9206;50.994;4.538;2023-05-16T02:35:19;7.47;;;2.83;;
18162;SDS011;9206;50.994;4.538;2023-05-16T02:41:14;11.50;;;3.00;;
18162;SDS011;9206;50.994;4.538;2023-05-16T02:44:01;8.33;;;2.83;;
18162;SDS011;9206;50.994;4.538;2023-05-16T02:46:49;18.67;;;3.80;;
18162;SDS011;9206;50.994;4.538;2023-05-16T02:52:35;12.20;;;3.67;;
18162;SDS011;9206;50.994;4.538;2023-05-16T02:55:29;17.87;;;4.40;;
18162;SDS011;9206;50.994;4.538;2023-05-16T02:58:22;8.80;;;2.70;;
18162;SDS011;9206;50.994;4.538;2023-05-16T03:01:23;11.23;;;2.83;;
18162;SDS011;9206;50.994;4.538;2023-05-16T03:07:02;11.13;;;2.53;;
18162;SDS011;9206;50.994;4.538;2023-05-16T03:10:19;12.70;;;3.27;;
18162;SDS011;9206;50.994;4.538;2023-05-16T03:13:11;13.53;;;2.97;;
18162;SDS011;9206;50.994;4.538;2023-05-16T03:16:00;9.57;;;3.00;;
18162;SDS011;9206;50.994;4.538;2023-05-16T03:18:51;13.40;;;3.37;;
18162;SDS011;9206;50.994;4.538;2023-05-16T03:21:38;11.60;;;3.30;;
18162;SDS011;9206;50.994;4.538;2023-05-16T03:27:23;11.10;;;3.10;;
18162;SDS011;9206;50.994;4.538;2023-05-16T03:30:19;7.67;;;2.70;;
18162;SDS011;9206;50.994;4.538;2023-05-16T03:33:07;11.00;;;3.33;;
18162;SDS011;9206;50.994;4.538;2023-05-16T03:36:00;7.63;;;2.33;;
18162;SDS011;9206;50.994;4.538;2023-05-16T03:38:50;10.87;;;2.97;;
18162;SDS011;9206;50.994;4.538;2023-05-16T03:41:43;12.07;;;3.10;;
18162;SDS011;9206;50.994;4.538;2023-05-16T03:47:52;5.73;;;2.67;;
18162;SDS011;9206;50.994;4.538;2023-05-16T03:50:43;9.80;;;2.70;;
18162;SDS011;9206;50.994;4.538;2023-05-16T03:53:36;8.30;;;2.73;;
18162;SDS011;9206;50.994;4.538;2023-05-16T03:56:40;2.80;;;2.30;;
18162;SDS011;9206;50.994;4.538;2023-05-16T03:59:28;4.93;;;2.70;;
18162;SDS011;9206;50.994;4.538;2023-05-16T04:02:26;7.70;;;3.00;;
18162;SDS011;9206;50.994;4.538;2023-05-16T04:05:15;5.53;;;2.80;;
18162;SDS011;9206;50.994;4.538;2023-05-16T04:08:03;8.10;;;2.87;;
18162;SDS011;9206;50.994;4.538;2023-05-16T04:10:51;5.50;;;2.50;;
18162;SDS011;9206;50.994;4.538;2023-05-16T04:13:41;4.97;;;2.63;;
18162;SDS011;9206;50.994;4.538;2023-05-16T04:16:34;7.33;;;2.87;;
18162;SDS011;9206;50.994;4.538;2023-05-16T04:19:23;13.90;;;4.20;;
18162;SDS011;9206;50.994;4.538;2023-05-16T04:22:14;7.47;;;4.10;;
18162;SDS011;9206;50.994;4.538;2023-05-16T04:25:10;13.33;;;3.97;;
18162;SDS011;9206;50.994;4.538;2023-05-16T04:28:00;16.17;;;4.97;;
18162;SDS011;9206;50.994;4.538;2023-05-16T04:30:51;10.83;;;4.07;;
18162;SDS011;9206;50.994;4.538;2023-05-16T04:33:42;12.50;;;3.77;;
18162;SDS011;9206;50.994;4.538;2023-05-16T04:36:33;8.07;;;3.60;;
18162;SDS011;9206;50.994;4.538;2023-05-16T04:39:25;5.93;;;3.60;;
18162;SDS011;9206;50.994;4.538;2023-05-16T04:42:21;10.57;;;3.47;;
18162;SDS011;9206;50.994;4.538;2023-05-16T04:45:12;20.37;;;4.20;;
18162;SDS011;9206;50.994;4.538;2023-05-16T04:48:00;17.60;;;3.40;;
18162;SDS011;9206;50.994;4.538;2023-05-16T04:50:48;13.23;;;3.90;;
18162;SDS011;9206;50.994;4.538;2023-05-16T04:53:40;16.37;;;4.23;;
18162;SDS011;9206;50.994;4.538;2023-05-16T04:56:27;9.33;;;3.83;;
18162;SDS011;9206;50.994;4.538;2023-05-16T04:59:16;10.17;;;3.50;;
18162;SDS011;9206;50.994;4.538;2023-05-16T05:02:04;17.23;;;3.57;;
18162;SDS011;9206;50.994;4.538;2023-05-16T05:04:52;8.80;;;3.53;;
18162;SDS011;9206;50.994;4.538;2023-05-16T05:07:40;9.47;;;3.40;;
18162;SDS011;9206;50.994;4.538;2023-05-16T05:10:40;11.47;;;4.27;;
18162;SDS011;9206;50.994;4.538;2023-05-16T05:13:40;11.83;;;4.40;;
18162;SDS011;9206;50.994;4.538;2023-05-16T05:16:30;12.70;;;5.17;;
18162;SDS011;9206;50.994;4.538;2023-05-16T05:19:29;10.03;;;3.50;;
18162;SDS011;9206;50.994;4.538;2023-05-16T05:22:17;9.83;;;3.77;;
18162;SDS011;9206;50.994;4.538;2023-05-16T05:25:08;7.43;;;3.10;;
18162;SDS011;9206;50.994;4.538;2023-05-16T05:28:05;10.73;;;3.50;;
18162;SDS011;9206;50.994;4.538;2023-05-16T05:30:53;13.33;;;3.50;;
18162;SDS011;9206;50.994;4.538;2023-05-16T05:33:44;11.60;;;3.17;;
18162;SDS011;9206;50.994;4.538;2023-05-16T05:36:31;7.23;;;3.00;;
18162;SDS011;9206;50.994;4.538;2023-05-16T05:39:26;11.00;;;3.17;;
18162;SDS011;9206;50.994;4.538;2023-05-16T05:42:22;5.10;;;2.50;;
18162;SDS011;9206;50.994;4.538;2023-05-16T05:45:17;9.23;;;2.90;;
18162;SDS011;9206;50.994;4.538;2023-05-16T05:48:05;7.57;;;3.33;;
18162;SDS011;9206;50.994;4.538;2023-05-16T05:50:54;10.10;;;2.73;;
18162;SDS011;9206;50.994;4.538;2023-05-16T05:53:49;6.93;;;2.63;;
18162;SDS011;9206;50.994;4.538;2023-05-16T05:56:38;10.87;;;2.90;;
18162;SDS011;9206;50.994;4.538;2023-05-16T05:59:31;11.83;;;2.40;;
18162;SDS011;9206;50.994;4.538;2023-05-16T06:02:29;7.53;;;2.37;;
18162;SDS011;9206;50.994;4.538;2023-05-16T06:05:22;6.77;;;2.60;;
18162;SDS011;9206;50.994;4.538;2023-05-16T06:08:10;7.50;;;2.10;;
18162;SDS011;9206;50.994;4.538;2023-05-16T06:10:59;13.25;;;2.40;;
18162;SDS011;9206;50.994;4.538;2023-05-16T06:14:00;10.18;;;2.20;;
18162;SDS011;9206;50.994;4.538;2023-05-16T06:16:53;9.85;;;2.15;;
18162;SDS011;9206;50.994;4.538;2023-05-16T06:22:38;6.50;;;1.88;;
18162;SDS011;9206;50.994;4.538;2023-05-16T06:25:27;5.25;;;2.28;;
18162;SDS011;9206;50.994;4.538;2023-05-16T06:28:22;7.22;;;2.28;;
18162;SDS011;9206;50.994;4.538;2023-05-16T06:31:19;4.97;;;1.73;;
18162;SDS011;9206;50.994;4.538;2023-05-16T06:34:11;8.23;;;2.13;;
18162;SDS011;9206;50.994;4.538;2023-05-16T06:37:51;9.00;;;2.00;;
18162;SDS011;9206;50.994;4.538;2023-05-16T06:41:25;3.13;;;1.90;;
18162;SDS011;9206;50.994;4.538;2023-05-16T06:44:21;4.57;;;2.03;;
18162;SDS011;9206;50.994;4.538;2023-05-16T06:47:10;6.45;;;1.85;;
18162;SDS011;9206;50.994;4.538;2023-05-16T06:50:07;5.60;;;1.80;;
18162;SDS011;9206;50.994;4.538;2023-05-16T06:52:59;4.93;;;1.92;;
18162;SDS011;9206;50.994;4.538;2023-05-16T06:55:53;4.38;;;2.00;;
18162;SDS011;9206;50.994;4.538;2023-05-16T06:58:41;9.05;;;2.00;;
18162;SDS011;9206;50.994;4.538;2023-05-16T07:01:33;5.72;;;1.70;;
18162;SDS011;9206;50.994;4.538;2023-05-16T07:07:39;4.75;;;1.80;;
18162;SDS011;9206;50.994;4.538;2023-05-16T07:10:29;6.22;;;1.55;;
18162;SDS011;9206;50.994;4.538;2023-05-16T07:13:16;3.80;;;1.48;;
18162;SDS011;9206;50.994;4.538;2023-05-16T07:16:04;4.47;;;1.40;;
18162;SDS011;9206;50.994;4.538;2023-05-16T07:18:52;4.20;;;1.67;;
18162;SDS011;9206;50.994;4.538;2023-05-16T07:21:46;4.45;;;1.90;;
18162;SDS011;9206;50.994;4.538;2023-05-16T07:24:33;7.38;;;1.70;;
18162;SDS011;9206;50.994;4.538;2023-05-16T07:27:25;6.03;;;1.70;;
18162;SDS011;9206;50.994;4.538;2023-05-16T07:30:13;2.42;;;1.67;;
18162;SDS011;9206;50.994;4.538;2023-05-16T07:33:01;6.43;;;1.52;;
18162;SDS011;9206;50.994;4.538;2023-05-16T07:35:50;2.53;;;1.55;;
18162;SDS011;9206;50.994;4.538;2023-05-16T07:38:39;5.15;;;1.58;;
18162;SDS011;9206;50.994;4.538;2023-05-16T07:41:27;5.15;;;1.38;;
18162;SDS011;9206;50.994;4.538;2023-05-16T07:44:22;3.70;;;1.50;;
18162;SDS011;9206;50.994;4.538;2023-05-16T07:47:11;6.80;;;1.70;;
18162;SDS011;9206;50.994;4.538;2023-05-16T07:49:58;7.20;;;1.67;;
18162;SDS011;9206;50.994;4.538;2023-05-16T07:52:46;7.35;;;1.92;;
18162;SDS011;9206;50.994;4.538;2023-05-16T07:55:36;2.78;;;1.23;;
18162;SDS011;9206;50.994;4.538;2023-05-16T07:58:29;6.00;;;1.50;;
18162;SDS011;9206;50.994;4.538;2023-05-16T08:01:18;3.75;;;1.45;;
18162;SDS011;9206;50.994;4.538;2023-05-16T08:04:06;4.40;;;1.60;;
18162;SDS011;9206;50.994;4.538;2023-05-16T08:06:55;6.22;;;1.75;;
18162;SDS011;9206;50.994;4.538;2023-05-16T08:09:43;4.68;;;1.98;;
18162;SDS011;9206;50.994;4.538;2023-05-16T08:12:30;4.13;;;1.50;;
18162;SDS011;9206;50.994;4.538;2023-05-16T08:15:18;5.63;;;1.40;;
18162;SDS011;9206;50.994;4.538;2023-05-16T08:18:12;6.28;;;1.92;;
18162;SDS011;9206;50.994;4.538;2023-05-16T08:21:04;3.95;;;1.67;;
18162;SDS011;9206;50.994;4.538;2023-05-16T08:23:54;6.68;;;1.80;;
18162;SDS011;9206;50.994;4.538;2023-05-16T08:26:45;3.50;;;1.55;;
18162;SDS011;9206;50.994;4.538;2023-05-16T08:32:28;1.40;;;1.30;;
18162;SDS011;9206;50.994;4.538;2023-05-16T08:35:19;4.25;;;1.98;;
18162;SDS011;9206;50.994;4.538;2023-05-16T08:38:13;4.32;;;1.70;;
18162;SDS011;9206;50.994;4.538;2023-05-16T08:43:59;2.30;;;1.73;;
18162;SDS011;9206;50.994;4.538;2023-05-16T08:47:03;3.55;;;1.85;;
18162;SDS011;9206;50.994;4.538;2023-05-16T08:50:00;3.42;;;1.40;;
18162;SDS011;9206;50.994;4.538;2023-05-16T08:52:51;2.95;;;1.40;;
18162;SDS011;9206;50.994;4.538;2023-05-16T08:55:39;4.85;;;1.38;;
18162;SDS011;9206;50.994;4.538;2023-05-16T08:58:29;5.00;;;1.60;;
18162;SDS011;9206;50.994;4.538;2023-05-16T09:01:18;3.30;;;1.35;;
18162;SDS011;9206;50.994;4.538;2023-05-16T09:04:13;3.45;;;1.30;;
18162;SDS011;9206;50.994;4.538;2023-05-16T09:07:02;6.38;;;1.92;;
18162;SDS011;9206;50.994;4.538;2023-05-16T09:09:53;2.22;;;1.23;;
18162;SDS011;9206;50.994;4.538;2023-05-16T09:12:41;2.90;;;1.58;;
18162;SDS011;9206;50.994;4.538;2023-05-16T09:15:30;5.68;;;1.70;;
18162;SDS011;9206;50.994;4.538;2023-05-16T09:18:19;2.60;;;1.40;;
18162;SDS011;9206;50.994;4.538;2023-05-16T09:21:11;2.65;;;1.63;;
18162;SDS011;9206;50.994;4.538;2023-05-16T09:32:43;3.03;;;1.70;;
18162;SDS011;9206;50.994;4.538;2023-05-16T09:35:32;8.05;;;1.45;;
18162;SDS011;9206;50.994;4.538;2023-05-16T09:44:24;3.55;;;1.17;;
18162;SDS011;9206;50.994;4.538;2023-05-16T09:47:21;3.53;;;1.33;;
18162;SDS011;9206;50.994;4.538;2023-05-16T09:50:12;3.15;;;1.38;;
18162;SDS011;9206;50.994;4.538;2023-05-16T09:53:01;4.15;;;1.30;;
18162;SDS011;9206;50.994;4.538;2023-05-16T09:55:58;1.98;;;1.20;;
18162;SDS011;9206;50.994;4.538;2023-05-16T10:04:35;2.17;;;1.05;;
18162;SDS011;9206;50.994;4.538;2023-05-16T10:07:31;2.72;;;1.48;;
18162;SDS011;9206;50.994;4.538;2023-05-16T10:10:25;2.40;;;1.30;;
18162;SDS011;9206;50.994;4.538;2023-05-16T10:13:15;3.40;;;1.30;;
18162;SDS011;9206;50.994;4.538;2023-05-16T10:16:11;1.90;;;1.05;;
18162;SDS011;9206;50.994;4.538;2023-05-16T10:19:02;1.58;;;1.00;;
18162;SDS011;9206;50.994;4.538;2023-05-16T10:21:57;2.38;;;1.45;;
18162;SDS011;9206;50.994;4.538;2023-05-16T10:24:51;2.88;;;1.20;;
18162;SDS011;9206;50.994;4.538;2023-05-16T10:27:44;2.38;;;1.50;;
18162;SDS011;9206;50.994;4.538;2023-05-16T10:30:34;2.88;;;1.17;;
18162;SDS011;9206;50.994;4.538;2023-05-16T10:33:28;1.50;;;1.08;;
18162;SDS011;9206;50.994;4.538;2023-05-16T10:36:19;2.97;;;1.15;;
18162;SDS011;9206;50.994;4.538;2023-05-16T10:39:10;2.28;;;0.88;;
18162;SDS011;9206;50.994;4.538;2023-05-16T10:41:59;3.47;;;1.40;;
18162;SDS011;9206;50.994;4.538;2023-05-16T10:44:47;5.55;;;1.30;;
18162;SDS011;9206;50.994;4.538;2023-05-16T10:47:34;2.63;;;1.10;;
18162;SDS011;9206;50.994;4.538;2023-05-16T10:50:38;1.95;;;1.38;;
18162;SDS011;9206;50.994;4.538;2023-05-16T10:53:34;1.67;;;1.38;;
18162;SDS011;9206;50.994;4.538;2023-05-16T10:56:22;2.95;;;1.20;;
18162;SDS011;9206;50.994;4.538;2023-05-16T10:59:22;2.55;;;1.30;;
18162;SDS011;9206;50.994;4.538;2023-05-16T11:02:24;1.98;;;1.30;;
18162;SDS011;9206;50.994;4.538;2023-05-16T11:05:16;1.98;;;1.27;;
18162;SDS011;9206;50.994;4.538;2023-05-16T11:08:08;3.67;;;1.30;;
18162;SDS011;9206;50.994;4.538;2023-05-16T11:14:26;4.25;;;1.60;;
18162;SDS011;9206;50.994;4.538;2023-05-16T11:17:22;2.08;;;1.23;;
18162;SDS011;9206;50.994;4.538;2023-05-16T11:23:18;4.32;;;1.38;;
18162;SDS011;9206;50.994;4.538;2023-05-16T11:29:06;2.85;;;1.50;;
18162;SDS011;9206;50.994;4.538;2023-05-16T11:31:58;4.28;;;1.50;;
18162;SDS011;9206;50.994;4.538;2023-05-16T11:34:54;2.75;;;1.30;;
18162;SDS011;9206;50.994;4.538;2023-05-16T11:37:50;6.47;;;1.73;;
18162;SDS011;9206;50.994;4.538;2023-05-16T11:40:42;4.07;;;1.55;;
18162;SDS011;9206;50.994;4.538;2023-05-16T11:43:43;4.63;;;1.73;;
18162;SDS011;9206;50.994;4.538;2023-05-16T11:49:34;3.28;;;1.48;;
18162;SDS011;9206;50.994;4.538;2023-05-16T11:52:23;5.30;;;1.20;;
18162;SDS011;9206;50.994;4.538;2023-05-16T11:55:17;4.43;;;1.67;;
18162;SDS011;9206;50.994;4.538;2023-05-16T11:58:26;5.15;;;1.60;;
18162;SDS011;9206;50.994;4.538;2023-05-16T12:01:14;5.72;;;1.35;;
18162;SDS011;9206;50.994;4.538;2023-05-16T12:04:06;2.45;;;1.50;;
18162;SDS011;9206;50.994;4.538;2023-05-16T12:09:51;3.90;;;1.80;;
18162;SDS011;9206;50.994;4.538;2023-05-16T12:16:08;4.63;;;1.50;;
18162;SDS011;9206;50.994;4.538;2023-05-16T12:18:58;5.53;;;1.50;;
18162;SDS011;9206;50.994;4.538;2023-05-16T12:21:51;4.22;;;1.15;;
18162;SDS011;9206;50.994;4.538;2023-05-16T12:24:47;3.25;;;1.25;;
18162;SDS011;9206;50.994;4.538;2023-05-16T12:30:38;4.80;;;1.73;;
18162;SDS011;9206;50.994;4.538;2023-05-16T12:33:29;4.38;;;1.65;;
18162;SDS011;9206;50.994;4.538;2023-05-16T12:36:18;4.50;;;1.55;;
18162;SDS011;9206;50.994;4.538;2023-05-16T12:39:10;2.05;;;1.00;;
18162;SDS011;9206;50.994;4.538;2023-05-16T12:42:08;6.22;;;1.40;;
18162;SDS011;9206;50.994;4.538;2023-05-16T12:44:59;3.30;;;1.45;;
18162;SDS011;9206;50.994;4.538;2023-05-16T12:47:49;5.15;;;1.65;;
18162;SDS011;9206;50.994;4.538;2023-05-16T12:53:28;2.97;;;1.50;;
18162;SDS011;9206;50.994;4.538;2023-05-16T12:59:14;5.22;;;1.48;;
18162;SDS011;9206;50.994;4.538;2023-05-16T13:02:03;3.28;;;1.42;;
18162;SDS011;9206;50.994;4.538;2023-05-16T13:04:51;6.22;;;1.73;;
18162;SDS011;9206;50.994;4.538;2023-05-16T13:07:38;2.78;;;1.40;;
18162;SDS011;9206;50.994;4.538;2023-05-16T13:10:26;1.65;;;1.13;;
18162;SDS011;9206;50.994;4.538;2023-05-16T13:13:14;3.42;;;1.52;;
18162;SDS011;9206;50.994;4.538;2023-05-16T13:16:06;5.15;;;1.30;;
18162;SDS011;9206;50.994;4.538;2023-05-16T13:21:46;2.88;;;1.60;;
18162;SDS011;9206;50.994;4.538;2023-05-16T13:24:33;3.50;;;1.70;;
18162;SDS011;9206;50.994;4.538;2023-05-16T13:27:27;4.07;;;2.13;;
18162;SDS011;9206;50.994;4.538;2023-05-16T13:30:17;1.60;;;1.40;;
18162;SDS011;9206;50.994;4.538;2023-05-16T13:33:07;4.28;;;1.77;;
18162;SDS011;9206;50.994;4.538;2023-05-16T13:35:55;4.78;;;1.92;;
18162;SDS011;9206;50.994;4.538;2023-05-16T13:38:44;2.83;;;1.70;;
18162;SDS011;9206;50.994;4.538;2023-05-16T13:41:32;5.95;;;1.55;;
18162;SDS011;9206;50.994;4.538;2023-05-16T13:44:28;4.60;;;1.58;;
18162;SDS011;9206;50.994;4.538;2023-05-16T13:47:15;3.75;;;1.77;;
18162;SDS011;9206;50.994;4.538;2023-05-16T13:50:07;4.53;;;1.65;;
18162;SDS011;9206;50.994;4.538;2023-05-16T13:52:54;5.32;;;1.88;;
18162;SDS011;9206;50.994;4.538;2023-05-16T13:55:48;5.40;;;1.70;;
18162;SDS011;9206;50.994;4.538;2023-05-16T13:58:35;4.00;;;1.42;;
18162;SDS011;9206;50.994;4.538;2023-05-16T14:01:23;4.00;;;1.23;;
18162;SDS011;9206;50.994;4.538;2023-05-16T14:04:16;8.07;;;1.38;;
18162;SDS011;9206;50.994;4.538;2023-05-16T14:07:05;5.68;;;1.75;;
18162;SDS011;9206;50.994;4.538;2023-05-16T14:09:58;4.03;;;1.55;;
18162;SDS011;9206;50.994;4.538;2023-05-16T14:12:47;2.65;;;1.60;;
18162;SDS011;9206;50.994;4.538;2023-05-16T14:15:40;2.03;;;1.30;;
18162;SDS011;9206;50.994;4.538;2023-05-16T14:18:29;3.40;;;1.27;;
18162;SDS011;9206;50.994;4.538;2023-05-16T14:21:18;5.03;;;1.50;;
18162;SDS011;9206;50.994;4.538;2023-05-16T14:24:08;4.43;;;1.70;;
18162;SDS011;9206;50.994;4.538;2023-05-16T14:27:02;5.45;;;1.20;;
18162;SDS011;9206;50.994;4.538;2023-05-16T14:29:49;3.15;;;1.38;;
18162;SDS011;9206;50.994;4.538;2023-05-16T14:32:37;3.13;;;1.30;;
18162;SDS011;9206;50.994;4.538;2023-05-16T14:35:29;1.55;;;1.20;;
18162;SDS011;9206;50.994;4.538;2023-05-16T14:38:17;4.30;;;1.30;;
18162;SDS011;9206;50.994;4.538;2023-05-16T14:41:21;2.35;;;1.17;;
18162;SDS011;9206;50.994;4.538;2023-05-16T14:44:11;3.05;;;1.35;;
18162;SDS011;9206;50.994;4.538;2023-05-16T14:46:58;3.97;;;1.30;;
18162;SDS011;9206;50.994;4.538;2023-05-16T14:49:49;3.38;;;1.10;;
18162;SDS011;9206;50.994;4.538;2023-05-16T14:52:40;5.82;;;1.30;;
18162;SDS011;9206;50.994;4.538;2023-05-16T14:55:28;7.63;;;1.50;;
18162;SDS011;9206;50.994;4.538;2023-05-16T14:58:18;3.75;;;1.15;;
18162;SDS011;9206;50.994;4.538;2023-05-16T15:01:08;4.63;;;1.20;;
18162;SDS011;9206;50.994;4.538;2023-05-16T15:03:58;2.38;;;1.00;;
18162;SDS011;9206;50.994;4.538;2023-05-16T15:06:46;3.22;;;1.08;;
18162;SDS011;9206;50.994;4.538;2023-05-16T15:09:37;1.50;;;1.15;;
18162;SDS011;9206;50.994;4.538;2023-05-16T15:12:32;2.55;;;1.30;;
18162;SDS011;9206;50.994;4.538;2023-05-16T15:15:22;3.78;;;1.23;;
18162;SDS011;9206;50.994;4.538;2023-05-16T15:18:15;2.65;;;0.90;;
18162;SDS011;9206;50.994;4.538;2023-05-16T15:21:05;5.95;;;1.50;;
18162;SDS011;9206;50.994;4.538;2023-05-16T15:23:56;1.40;;;1.00;;
18162;SDS011;9206;50.994;4.538;2023-05-16T15:26:44;3.20;;;1.27;;
18162;SDS011;9206;50.994;4.538;2023-05-16T15:29:31;3.20;;;1.30;;
18162;SDS011;9206;50.994;4.538;2023-05-16T15:32:29;2.78;;;1.05;;
18162;SDS011;9206;50.994;4.538;2023-05-16T15:35:20;4.28;;;1.42;;
18162;SDS011;9206;50.994;4.538;2023-05-16T15:38:13;3.28;;;1.40;;
18162;SDS011;9206;50.994;4.538;2023-05-16T15:41:07;1.85;;;1.10;;
18162;SDS011;9206;50.994;4.538;2023-05-16T15:43:54;2.95;;;0.90;;
18162;SDS011;9206;50.994;4.538;2023-05-16T15:46:44;3.38;;;1.05;;
18162;SDS011;9206;50.994;4.538;2023-05-16T15:49:35;3.25;;;1.05;;
18162;SDS011;9206;50.994;4.538;2023-05-16T15:55:13;4.10;;;1.38;;
18162;SDS011;9206;50.994;4.538;2023-05-16T15:58:01;1.65;;;1.20;;
18162;SDS011;9206;50.994;4.538;2023-05-16T16:00:52;1.77;;;1.17;;
18162;SDS011;9206;50.994;4.538;2023-05-16T16:03:45;2.70;;;1.10;;
18162;SDS011;9206;50.994;4.538;2023-05-16T16:06:34;3.92;;;1.30;;
18162;SDS011;9206;50.994;4.538;2023-05-16T16:09:22;3.80;;;1.35;;
18162;SDS011;9206;50.994;4.538;2023-05-16T16:12:10;2.92;;;1.10;;
18162;SDS011;9206;50.994;4.538;2023-05-16T16:14:59;1.75;;;0.80;;
18162;SDS011;9206;50.994;4.538;2023-05-16T16:17:48;2.65;;;1.13;;
18162;SDS011;9206;50.994;4.538;2023-05-16T16:20:37;3.22;;;1.35;;
18162;SDS011;9206;50.994;4.538;2023-05-16T16:23:29;1.50;;;0.98;;
18162;SDS011;9206;50.994;4.538;2023-05-16T16:26:18;1.98;;;1.55;;
18162;SDS011;9206;50.994;4.538;2023-05-16T16:29:05;4.53;;;1.15;;
18162;SDS011;9206;50.994;4.538;2023-05-16T16:31:56;4.78;;;1.35;;
18162;SDS011;9206;50.994;4.538;2023-05-16T16:34:46;6.28;;;1.20;;
18162;SDS011;9206;50.994;4.538;2023-05-16T16:41:01;5.65;;;1.13;;
18162;SDS011;9206;50.994;4.538;2023-05-16T16:43:50;1.67;;;1.10;;
18162;SDS011;9206;50.994;4.538;2023-05-16T16:46:52;2.35;;;1.00;;
18162;SDS011;9206;50.994;4.538;2023-05-16T16:50:08;1.83;;;1.02;;
18162;SDS011;9206;50.994;4.538;2023-05-16T16:53:05;6.40;;;1.10;;
18162;SDS011;9206;50.994;4.538;2023-05-16T16:55:54;1.63;;;1.20;;
18162;SDS011;9206;50.994;4.538;2023-05-16T16:58:46;1.50;;;0.80;;
18162;SDS011;9206;50.994;4.538;2023-05-16T17:01:36;3.10;;;1.13;;
18162;SDS011;9206;50.994;4.538;2023-05-16T17:04:24;1.58;;;0.90;;
18162;SDS011;9206;50.994;4.538;2023-05-16T17:07:12;1.47;;;1.03;;
18162;SDS011;9206;50.994;4.538;2023-05-16T17:10:05;2.90;;;1.10;;
18162;SDS011;9206;50.994;4.538;2023-05-16T17:12:55;1.30;;;0.90;;
18162;SDS011;9206;50.994;4.538;2023-05-16T17:15:51;1.87;;;1.07;;
18162;SDS011;9206;50.994;4.538;2023-05-16T17:18:40;2.40;;;1.20;;
18162;SDS011;9206;50.994;4.538;2023-05-16T17:21:33;2.07;;;1.43;;
18162;SDS011;9206;50.994;4.538;2023-05-16T17:24:24;2.80;;;0.90;;
18162;SDS011;9206;50.994;4.538;2023-05-16T17:30:02;2.17;;;1.10;;
18162;SDS011;9206;50.994;4.538;2023-05-16T17:32:53;2.30;;;1.13;;
18162;SDS011;9206;50.994;4.538;2023-05-16T17:35:46;4.90;;;1.40;;
18162;SDS011;9206;50.994;4.538;2023-05-16T17:38:33;2.00;;;1.40;;
18162;SDS011;9206;50.994;4.538;2023-05-16T17:41:21;0.90;;;0.90;;
18162;SDS011;9206;50.994;4.538;2023-05-16T17:44:11;1.27;;;1.00;;
18162;SDS011;9206;50.994;4.538;2023-05-16T17:47:07;3.30;;;1.07;;
18162;SDS011;9206;50.994;4.538;2023-05-16T17:49:56;4.67;;;1.00;;
18162;SDS011;9206;50.994;4.538;2023-05-16T17:52:46;2.97;;;1.00;;
18162;SDS011;9206;50.994;4.538;2023-05-16T17:55:42;2.57;;;1.03;;
18162;SDS011;9206;50.994;4.538;2023-05-16T17:58:32;2.83;;;1.23;;
18162;SDS011;9206;50.994;4.538;2023-05-16T18:01:26;4.97;;;1.30;;
18162;SDS011;9206;50.994;4.538;2023-05-16T18:04:17;2.10;;;1.27;;
18162;SDS011;9206;50.994;4.538;2023-05-16T18:07:09;1.53;;;1.00;;
18162;SDS011;9206;50.994;4.538;2023-05-16T18:09:58;3.80;;;1.10;;
18162;SDS011;9206;50.994;4.538;2023-05-16T18:12:47;2.60;;;1.07;;
18162;SDS011;9206;50.994;4.538;2023-05-16T18:15:35;1.43;;;1.20;;
18162;SDS011;9206;50.994;4.538;2023-05-16T18:18:28;2.63;;;1.10;;
18162;SDS011;9206;50.994;4.538;2023-05-16T18:21:17;1.93;;;1.20;;
18162;SDS011;9206;50.994;4.538;2023-05-16T18:24:09;3.13;;;1.40;;
18162;SDS011;9206;50.994;4.538;2023-05-16T18:27:06;6.40;;;1.40;;
18162;SDS011;9206;50.994;4.538;2023-05-16T18:30:00;2.70;;;1.40;;
18162;SDS011;9206;50.994;4.538;2023-05-16T18:32:48;2.37;;;1.47;;
18162;SDS011;9206;50.994;4.538;2023-05-16T18:35:41;1.97;;;1.70;;
18162;SDS011;9206;50.994;4.538;2023-05-16T18:38:34;3.67;;;1.40;;
18162;SDS011;9206;50.994;4.538;2023-05-16T18:41:23;4.93;;;1.40;;
18162;SDS011;9206;50.994;4.538;2023-05-16T18:44:13;2.53;;;1.60;;
18162;SDS011;9206;50.994;4.538;2023-05-16T18:47:04;2.67;;;1.47;;
18162;SDS011;9206;50.994;4.538;2023-05-16T18:50:14;2.43;;;1.40;;
18162;SDS011;9206;50.994;4.538;2023-05-16T18:53:07;3.57;;;1.40;;
18162;SDS011;9206;50.994;4.538;2023-05-16T18:55:57;1.83;;;1.20;;
18162;SDS011;9206;50.994;4.538;2023-05-16T19:01:38;3.67;;;3.27;;
18162;SDS011;9206;50.994;4.538;2023-05-16T19:04:40;4.37;;;2.20;;
18162;SDS011;9206;50.994;4.538;2023-05-16T19:07:27;3.50;;;2.03;;
18162;SDS011;9206;50.994;4.538;2023-05-16T19:10:15;3.07;;;1.93;;
18162;SDS011;9206;50.994;4.538;2023-05-16T19:13:11;4.67;;;2.17;;